Time,TemperatureF,DewpointF,PressureIn,WindDirection,WindDirectionDegrees,WindSpeedMPH,WindSpeedGustMPH,Humidity,HourlyPrecipIn,Conditions,Clouds,dailyrainin,SoftwareType,DateUTC
2013-03-12 00:00:00,44.9,43.3,29.70,West,269,4.4,5.8,94,0.02,-RA,,0.63,WeatherDisplay:10.37,2013-03-12 04:00:00,
2013-03-12 00:05:00,44.7,43.1,29.71,West,268,2.1,8.1,94,0.02,RA,,0.00,WeatherDisplay:10.37,2013-03-12 04:05:00,
2013-03-12 00:10:00,44.7,42.8,29.72,West,263,5.0,10.4,93,0.01,RA,,0.00,WeatherDisplay:10.37,2013-03-12 04:10:00,
2013-03-12 00:15:00,44.6,42.4,29.71,West,265,5.0,12.0,92,0.00,OVC,OVC,0.00,WeatherDisplay:10.37,2013-03-12 04:15:00,
2013-03-12 00:20:00,44.5,42.0,29.72,WSW,257,6.0,12.0,91,0.00,OVC,OVC,0.00,WeatherDisplay:10.37,2013-03-12 04:20:00,
2013-03-12 00:25:00,44.5,42.0,29.73,WSW,248,5.0,14.0,91,0.00,OVC,OVC,0.00,WeatherDisplay:10.37,2013-03-12 04:25:00,
2013-03-12 00:30:00,44.3,41.9,29.73,WSW,248,3.0,10.0,91,0.00,OVC,OVC,0.00,WeatherDisplay:10.37,2013-03-12 04:30:00,
2013-03-12 00:35:00,44.3,41.8,29.73,WSW,249,4.5,8.0,91,0.00,OVC,,0.00,WeatherDisplay:10.37,2013-03-12 04:35:00,
2013-03-12 00:40:00,44.2,41.7,29.73,WSW,250,3.2,3.5,91,0.00,OVC,,0.00,WeatherDisplay:10.37,2013-03-12 04:40:00,
2013-03-12 00:45:00,44.1,41.6,29.74,SW,223,3.4,6.9,91,0.00,OVC,,0.00,WeatherDisplay:10.37,2013-03-12 04:45:00,
2013-03-12 00:50:00,44.0,41.5,29.74,WSW,237,2.7,3.5,91,0.00,OVC,,0.00,WeatherDisplay:10.37,2013-03-12 04:50:00,
2013-03-12 00:55:00,44.0,41.5,29.73,SW,236,4.5,11.0,91,0.00,OVC,,0.00,WeatherDisplay:10.37,2013-03-12 04:55:00,
2013-03-12 01:00:00,43.9,41.2,29.74,WSW,242,4.9,11.5,90,0.00,OVC,,0.00,WeatherDisplay:10.37,2013-03-12 05:00:00,
2013-03-12 01:05:00,43.9,41.2,29.74,WSW,245,3.0,8.0,90,0.00,-RA,-RA,0.00,WeatherDisplay:10.37,2013-03-12 05:05:00,
2013-03-12 01:10:00,43.9,41.2,29.73,West,259,1.6,6.0,90,0.00,-RA,,0.00,WeatherDisplay:10.37,2013-03-12 05:10:00,
2013-03-12 01:15:00,43.8,41.3,29.73,West,261,1.0,4.0,91,0.00,-RA,-RA,0.00,WeatherDisplay:10.37,2013-03-12 05:15:00,
2013-03-12 01:20:00,43.7,41.0,29.74,WSW,240,6.1,11.5,90,0.00,-RA,,0.00,WeatherDisplay:10.37,2013-03-12 05:20:00,
2013-03-12 01:25:00,43.5,40.5,29.74,West,264,2.0,3.5,89,0.00,-RA,,0.00,WeatherDisplay:10.37,2013-03-12 05:25:00,
2013-03-12 01:30:00,43.4,40.4,29.73,West,272,6.0,8.0,89,0.00,-RA,-RA,0.00,WeatherDisplay:10.37,2013-03-12 05:30:00,
2013-03-12 01:35:00,43.3,39.7,29.73,West,274,3.0,9.0,87,0.00,-RA,-RA,0.00,WeatherDisplay:10.37,2013-03-12 05:35:00,
2013-03-12 01:40:00,43.2,39.9,29.73,WSW,246,3.3,5.8,88,0.00,-RA,,0.00,WeatherDisplay:10.37,2013-03-12 05:40:00,
2013-03-12 01:45:00,43.1,39.8,29.74,WSW,257,2.0,6.0,88,0.00,-RA,-RA,0.00,WeatherDisplay:10.37,2013-03-12 05:45:00,
2013-03-12 01:50:00,42.9,39.6,29.74,WSW,257,2.0,6.0,88,0.00,-RA,-RA,0.00,WeatherDisplay:10.37,2013-03-12 05:50:00,
2013-03-12 01:55:00,42.9,39.3,29.74,West,273,3.9,11.5,87,0.00,-RA,,0.00,WeatherDisplay:10.37,2013-03-12 05:55:00,
2013-03-12 02:00:00,42.8,38.9,29.75,WSW,246,2.8,5.8,86,0.00,-RA,,0.00,WeatherDisplay:10.37,2013-03-12 06:00:00,
2013-03-12 02:05:00,42.8,38.9,29.75,WSW,247,5.0,8.0,86,0.00,-RA,-RA,0.00,WeatherDisplay:10.37,2013-03-12 06:05:00,
2013-03-12 02:10:00,42.8,38.6,29.74,WSW,246,4.4,11.5,85,0.00,-RA,,0.00,WeatherDisplay:10.37,2013-03-12 06:10:00,
2013-03-12 02:15:00,42.7,38.5,29.74,WSW,251,2.0,6.0,85,0.00,-RA,-RA,0.00,WeatherDisplay:10.37,2013-03-12 06:15:00,
2013-03-12 02:20:00,42.6,38.4,29.75,West,271,2.8,5.8,85,0.00,-RA,,0.00,WeatherDisplay:10.37,2013-03-12 06:20:00,
2013-03-12 02:25:00,42.6,38.7,29.75,West,273,0.0,2.3,86,0.00,-RA,,0.00,WeatherDisplay:10.37,2013-03-12 06:25:00,
2013-03-12 02:30:00,42.5,38.6,29.74,West,276,1.0,7.0,86,0.00,-RA,-RA,0.00,WeatherDisplay:10.37,2013-03-12 06:30:00,
2013-03-12 02:35:00,42.4,38.2,29.75,West,281,5.6,13.0,85,0.00,-RA,,0.00,WeatherDisplay:10.37,2013-03-12 06:35:00,
2013-03-12 02:40:00,42.3,37.5,29.76,West,278,7.0,12.0,83,0.00,-RA,-RA,0.00,WeatherDisplay:10.37,2013-03-12 06:40:00,
2013-03-12 02:45:00,42.3,37.8,29.76,West,275,3.0,9.0,84,0.00,-RA,-RA,0.00,WeatherDisplay:10.37,2013-03-12 06:45:00,
2013-03-12 02:50:00,42.1,37.3,29.76,West,271,3.0,9.0,83,0.00,-RA,-RA,0.00,WeatherDisplay:10.37,2013-03-12 06:50:00,
2013-03-12 02:55:00,42.0,37.2,29.76,West,259,4.5,5.8,83,0.00,-RA,,0.00,WeatherDisplay:10.37,2013-03-12 06:55:00,
2013-03-12 03:00:00,41.9,37.1,29.76,West,263,2.6,6.9,83,0.00,-RA,,0.00,WeatherDisplay:10.37,2013-03-12 07:00:00,
2013-03-12 03:05:00,41.7,36.6,29.76,West,264,7.0,13.0,82,0.00,-RA,-RA,0.00,WeatherDisplay:10.37,2013-03-12 07:05:00,
2013-03-12 03:10:00,41.6,36.8,29.76,West,271,2.0,12.0,83,0.00,-RA,-RA,0.00,WeatherDisplay:10.37,2013-03-12 07:10:00,
2013-03-12 03:15:00,41.6,36.8,29.76,West,270,5.0,8.0,83,0.00,-RA,-RA,0.00,WeatherDisplay:10.37,2013-03-12 07:15:00,
2013-03-12 03:20:00,41.5,36.4,29.76,WNW,288,5.3,8.0,82,0.00,-RA,,0.00,WeatherDisplay:10.37,2013-03-12 07:20:00,
2013-03-12 03:25:00,41.4,36.3,29.76,West,266,6.0,12.0,82,0.00,-RA,-RA,0.00,WeatherDisplay:10.37,2013-03-12 07:25:00,
2013-03-12 03:30:00,41.4,36.3,29.76,WSW,255,5.3,6.9,82,0.00,-RA,,0.00,WeatherDisplay:10.37,2013-03-12 07:30:00,
2013-03-12 03:35:00,41.3,36.5,29.77,West,272,5.0,8.0,83,0.00,-RA,-RA,0.00,WeatherDisplay:10.37,2013-03-12 07:35:00,
2013-03-12 03:40:00,41.2,36.4,29.77,WSW,240,2.1,3.5,83,0.00,-RA,,0.00,WeatherDisplay:10.37,2013-03-12 07:40:00,
2013-03-12 03:45:00,41.1,36.3,29.77,West,261,3.3,4.6,83,0.00,-RA,,0.00,WeatherDisplay:10.37,2013-03-12 07:45:00,
2013-03-12 03:50:00,41.0,36.5,29.77,WSW,256,2.2,3.5,84,0.00,-RA,,0.00,WeatherDisplay:10.37,2013-03-12 07:50:00,
2013-03-12 03:55:00,41.0,36.5,29.77,West,268,2.7,3.5,84,0.00,-RA,,0.00,WeatherDisplay:10.37,2013-03-12 07:55:00,
2013-03-12 04:00:00,40.9,36.7,29.77,WSW,250,3.9,6.0,85,0.00,-RA,,0.00,WeatherDisplay:10.37,2013-03-12 08:00:00,
2013-03-12 04:05:00,40.8,36.6,29.77,NW,307,6.1,9.0,85,0.00,-RA,,0.00,WeatherDisplay:10.37,2013-03-12 08:05:00,
2013-03-12 04:10:00,40.6,35.8,29.77,WNW,285,4.1,5.0,83,0.00,-RA,,0.00,WeatherDisplay:10.37,2013-03-12 08:10:00,
2013-03-12 04:15:00,40.5,36.0,29.77,West,266,3.8,6.9,84,0.00,-RA,,0.00,WeatherDisplay:10.37,2013-03-12 08:15:00,
2013-03-12 04:20:00,40.4,36.2,29.77,West,273,2.0,6.0,85,0.00,-RA,-RA,0.00,WeatherDisplay:10.37,2013-03-12 08:20:00,
2013-03-12 04:25:00,40.3,35.8,29.77,West,269,4.9,12.7,84,0.00,-RA,,0.00,WeatherDisplay:10.37,2013-03-12 08:25:00,
2013-03-12 04:30:00,40.1,35.4,29.78,WNW,294,5.4,5.8,83,0.00,-RA,,0.00,WeatherDisplay:10.37,2013-03-12 08:30:00,
2013-03-12 04:35:00,40.0,35.3,29.78,West,269,6.1,9.2,83,0.00,-RA,,0.00,WeatherDisplay:10.37,2013-03-12 08:35:00,
2013-03-12 04:40:00,39.9,35.2,29.77,WNW,297,2.2,8.1,83,0.00,-RA,,0.00,WeatherDisplay:10.37,2013-03-12 08:40:00,
2013-03-12 04:45:00,39.8,35.1,29.77,WNW,291,6.0,13.0,83,0.00,-RA,-RA,0.00,WeatherDisplay:10.37,2013-03-12 08:45:00,
2013-03-12 04:50:00,39.7,34.7,29.78,WNW,285,7.0,12.0,82,0.00,-RA,-RA,0.00,WeatherDisplay:10.37,2013-03-12 08:50:00,
2013-03-12 04:55:00,39.6,34.9,29.78,West,281,6.2,11.5,83,0.00,-RA,,0.00,WeatherDisplay:10.37,2013-03-12 08:55:00,
2013-03-12 05:00:00,39.5,34.8,29.78,WNW,284,3.4,6.9,83,0.00,-RA,,0.00,WeatherDisplay:10.37,2013-03-12 09:00:00,
2013-03-12 05:05:00,39.4,34.7,29.78,West,279,3.8,12.7,83,0.00,-RA,,0.00,WeatherDisplay:10.37,2013-03-12 09:05:00,
2013-03-12 05:10:00,39.3,34.6,29.79,WNW,282,5.0,8.0,83,0.00,-RA,-RA,0.00,WeatherDisplay:10.37,2013-03-12 09:10:00,
2013-03-12 05:15:00,39.2,34.5,29.79,WNW,301,3.6,7.0,83,0.00,-RA,,0.00,WeatherDisplay:10.37,2013-03-12 09:15:00,
2013-03-12 05:20:00,39.1,34.1,29.79,West,264,3.9,9.2,82,0.00,-RA,,0.00,WeatherDisplay:10.37,2013-03-12 09:20:00,
2013-03-12 05:25:00,39.1,34.4,29.79,West,270,4.8,6.0,83,0.00,-RA,,0.00,WeatherDisplay:10.37,2013-03-12 09:25:00,
2013-03-12 05:30:00,38.9,33.6,29.79,West,273,5.0,12.0,81,0.00,-RA,-RA,0.00,WeatherDisplay:10.37,2013-03-12 09:30:00,
2013-03-12 05:35:00,38.9,33.9,29.79,WSW,258,8.4,16.1,82,0.00,-RA,,0.00,WeatherDisplay:10.37,2013-03-12 09:35:00,
2013-03-12 05:40:00,38.8,33.8,29.80,West,263,4.9,5.8,82,0.00,-RA,,0.00,WeatherDisplay:10.37,2013-03-12 09:40:00,
2013-03-12 05:45:00,38.8,33.8,29.80,WNW,296,3.2,8.1,82,0.00,-RA,,0.00,WeatherDisplay:10.37,2013-03-12 09:45:00,
2013-03-12 05:50:00,38.6,33.3,29.80,WNW,294,7.8,11.5,81,0.00,-RA,,0.00,WeatherDisplay:10.37,2013-03-12 09:50:00,
2013-03-12 05:55:00,38.5,33.2,29.81,West,273,7.0,13.0,81,0.00,-RA,-RA,0.00,WeatherDisplay:10.37,2013-03-12 09:55:00,
2013-03-12 06:00:00,38.3,33.0,29.81,WNW,295,5.1,9.2,81,0.00,-RA,,0.00,WeatherDisplay:10.37,2013-03-12 10:00:00,
2013-03-12 06:05:00,38.2,33.2,29.81,West,280,5.0,8.0,82,0.00,OVC,OVC,0.00,WeatherDisplay:10.37,2013-03-12 10:05:00,
2013-03-12 06:10:00,38.1,32.8,29.81,West,261,7.9,13.8,81,0.00,OVC,,0.00,WeatherDisplay:10.37,2013-03-12 10:10:00,
2013-03-12 06:15:00,38.0,33.0,29.81,West,271,3.2,5.8,82,0.00,OVC,,0.00,WeatherDisplay:10.37,2013-03-12 10:15:00,
2013-03-12 06:20:00,37.9,32.9,29.81,West,269,5.0,10.0,82,0.00,OVC,OVC,0.00,WeatherDisplay:10.37,2013-03-12 10:20:00,
2013-03-12 06:25:00,37.9,32.9,29.81,West,265,5.0,7.0,82,0.00,OVC,OVC,0.00,WeatherDisplay:10.37,2013-03-12 10:25:00,
2013-03-12 06:30:00,37.8,32.8,29.81,WNW,300,5.2,9.2,82,0.00,OVC,,0.00,WeatherDisplay:10.37,2013-03-12 10:30:00,
2013-03-12 06:35:00,37.8,32.8,29.82,West,271,3.2,7.0,82,0.00,OVC,,0.00,WeatherDisplay:10.37,2013-03-12 10:35:00,
2013-03-12 06:40:00,37.7,32.7,29.82,West,261,2.5,6.0,82,0.00,OVC,,0.00,WeatherDisplay:10.37,2013-03-12 10:40:00,
2013-03-12 06:45:00,37.7,32.7,29.82,West,265,1.7,3.5,82,0.00,OVC,,0.00,WeatherDisplay:10.37,2013-03-12 10:45:00,
2013-03-12 06:50:00,37.7,33.0,29.81,WNW,289,2.4,3.5,83,0.00,OVC,,0.00,WeatherDisplay:10.37,2013-03-12 10:50:00,
2013-03-12 06:55:00,37.6,32.9,29.82,WSW,255,2.3,3.5,83,0.00,OVC,,0.00,WeatherDisplay:10.37,2013-03-12 10:55:00,
2013-03-12 07:00:00,37.6,32.9,29.82,WSW,251,3.8,3.8,83,0.00,OVC,,0.00,WeatherDisplay:10.37,2013-03-12 11:00:00,
2013-03-12 07:05:00,37.5,32.8,29.82,WSW,251,0.0,2.3,83,0.00,OVC,,0.00,WeatherDisplay:10.37,2013-03-12 11:05:00,
2013-03-12 07:10:00,37.5,32.8,29.82,WSW,243,1.9,4.6,83,0.00,OVC,,0.00,WeatherDisplay:10.37,2013-03-12 11:10:00,
2013-03-12 07:15:00,37.4,32.7,29.82,WSW,240,2.5,3.5,83,0.00,OVC,,0.00,WeatherDisplay:10.37,2013-03-12 11:15:00,
2013-03-12 07:20:00,37.4,32.7,29.83,WSW,240,1.2,3.5,83,0.00,OVC,,0.00,WeatherDisplay:10.37,2013-03-12 11:20:00,
2013-03-12 07:25:00,37.4,33.0,29.83,WSW,246,2.0,3.5,84,0.00,OVC,,0.00,WeatherDisplay:10.37,2013-03-12 11:25:00,
2013-03-12 07:30:00,37.4,33.0,29.82,West,261,2.5,3.0,84,0.00,OVC,,0.00,WeatherDisplay:10.37,2013-03-12 11:30:00,
2013-03-12 07:35:00,37.4,33.0,29.83,WSW,240,2.0,3.5,84,0.00,OVC,,0.00,WeatherDisplay:10.37,2013-03-12 11:35:00,
2013-03-12 07:40:00,37.4,33.0,29.83,WSW,247,2.3,3.5,84,0.00,OVC,,0.00,WeatherDisplay:10.37,2013-03-12 11:40:00,
2013-03-12 07:45:00,37.3,33.2,29.83,WSW,243,3.6,4.6,85,0.00,OVC,,0.00,WeatherDisplay:10.37,2013-03-12 11:45:00,
2013-03-12 07:50:00,37.3,33.2,29.83,WSW,249,4.7,4.7,85,0.00,OVC,,0.00,WeatherDisplay:10.37,2013-03-12 11:50:00,
2013-03-12 07:55:00,37.3,33.2,29.83,WSW,238,3.5,4.6,85,0.00,OVC,,0.00,WeatherDisplay:10.37,2013-03-12 11:55:00,
2013-03-12 08:00:00,37.4,33.3,29.83,WSW,240,1.6,3.5,85,0.00,OVC,,0.00,WeatherDisplay:10.37,2013-03-12 12:00:00,
2013-03-12 08:05:00,37.4,33.3,29.83,West,260,3.7,5.8,85,0.00,OVC,,0.00,WeatherDisplay:10.37,2013-03-12 12:05:00,
2013-03-12 08:10:00,37.4,33.3,29.83,WSW,243,3.6,6.9,85,0.00,OVC,,0.00,WeatherDisplay:10.37,2013-03-12 12:10:00,
2013-03-12 08:15:00,37.4,33.3,29.83,SW,236,5.3,5.3,85,0.00,OVC,,0.00,WeatherDisplay:10.37,2013-03-12 12:15:00,
2013-03-12 08:20:00,37.5,33.4,29.83,SW,235,2.4,3.5,85,0.00,OVC,,0.00,WeatherDisplay:10.37,2013-03-12 12:20:00,
2013-03-12 08:25:00,37.5,33.4,29.83,West,267,3.7,8.1,85,0.00,OVC,,0.00,WeatherDisplay:10.37,2013-03-12 12:25:00,
2013-03-12 08:30:00,37.5,33.4,29.84,WSW,254,3.5,3.5,85,0.00,OVC,,0.00,WeatherDisplay:10.37,2013-03-12 12:30:00,
2013-03-12 08:35:00,37.5,33.7,29.84,WSW,254,3.8,4.6,86,0.00,OVC,,0.00,WeatherDisplay:10.37,2013-03-12 12:35:00,
2013-03-12 08:40:00,37.5,33.4,29.84,SW,228,2.7,5.8,85,0.00,OVC,,0.00,WeatherDisplay:10.37,2013-03-12 12:40:00,
2013-03-12 08:45:00,37.6,33.5,29.84,WSW,240,5.4,6.9,85,0.00,OVC,,0.00,WeatherDisplay:10.37,2013-03-12 12:45:00,
2013-03-12 08:50:00,37.6,33.5,29.84,WSW,239,3.0,3.5,85,0.00,OVC,,0.00,WeatherDisplay:10.37,2013-03-12 12:50:00,
2013-03-12 08:55:00,37.6,33.5,29.84,West,269,4.6,5.8,85,0.00,OVC,,0.00,WeatherDisplay:10.37,2013-03-12 12:55:00,
2013-03-12 09:00:00,37.6,33.2,29.84,WSW,256,3.7,8.1,84,0.00,OVC,,0.00,WeatherDisplay:10.37,2013-03-12 13:00:00,
2013-03-12 09:05:00,37.6,33.5,29.84,WSW,242,2.5,3.5,85,0.00,OVC,,0.00,WeatherDisplay:10.37,2013-03-12 13:05:00,
2013-03-12 09:10:00,37.6,33.5,29.84,WSW,246,2.7,4.6,85,0.00,OVC,,0.00,WeatherDisplay:10.37,2013-03-12 13:10:00,
2013-03-12 09:15:00,37.6,33.5,29.84,WSW,253,3.5,6.9,85,0.00,OVC,,0.00,WeatherDisplay:10.37,2013-03-12 13:15:00,
2013-03-12 09:20:00,37.6,33.2,29.84,West,263,3.3,6.0,84,0.00,OVC,,0.00,WeatherDisplay:10.37,2013-03-12 13:20:00,
2013-03-12 09:25:00,37.5,33.4,29.85,WSW,244,3.6,6.9,85,0.00,OVC,,0.00,WeatherDisplay:10.37,2013-03-12 13:25:00,
2013-03-12 09:30:00,37.5,33.4,29.85,West,275,3.8,5.8,85,0.00,OVC,,0.00,WeatherDisplay:10.37,2013-03-12 13:30:00,
2013-03-12 09:35:00,37.5,33.4,29.85,West,273,5.3,8.1,85,0.00,OVC,,0.00,WeatherDisplay:10.37,2013-03-12 13:35:00,
2013-03-12 09:40:00,37.4,33.0,29.85,WSW,257,7.4,12.7,84,0.00,OVC,,0.00,WeatherDisplay:10.37,2013-03-12 13:40:00,
2013-03-12 09:45:00,37.4,33.0,29.85,SW,217,5.9,5.9,84,0.00,OVC,,0.00,WeatherDisplay:10.37,2013-03-12 13:45:00,
2013-03-12 09:50:00,37.5,32.8,29.85,WSW,250,6.0,6.0,83,0.00,OVC,,0.00,WeatherDisplay:10.37,2013-03-12 13:50:00,
2013-03-12 09:55:00,37.5,32.5,29.85,WSW,239,8.8,13.8,82,0.00,OVC,,0.00,WeatherDisplay:10.37,2013-03-12 13:55:00,
2013-03-12 10:00:00,37.5,32.5,29.85,West,261,7.0,12.0,82,0.00,OVC,OVC,0.00,WeatherDisplay:10.37,2013-03-12 14:00:00,
2013-03-12 10:05:00,37.5,32.2,29.85,West,266,9.0,20.0,81,0.00,OVC,OVC,0.00,WeatherDisplay:10.37,2013-03-12 14:05:00,
2013-03-12 10:10:00,37.5,32.2,29.85,West,262,6.5,11.5,81,0.00,OVC,,0.00,WeatherDisplay:10.37,2013-03-12 14:10:00,
2013-03-12 10:15:00,37.4,32.1,29.85,West,278,5.2,8.1,81,0.00,OVC,,0.00,WeatherDisplay:10.37,2013-03-12 14:15:00,
2013-03-12 10:20:00,37.5,32.5,29.85,SW,228,4.6,12.7,82,0.00,OVC,,0.00,WeatherDisplay:10.37,2013-03-12 14:20:00,
2013-03-12 10:25:00,37.4,32.4,29.86,West,279,8.2,17.3,82,0.00,OVC,,0.00,WeatherDisplay:10.37,2013-03-12 14:25:00,
2013-03-12 10:30:00,37.3,32.3,29.86,West,269,9.2,14.0,82,0.00,OVC,,0.00,WeatherDisplay:10.37,2013-03-12 14:30:00,
2013-03-12 10:35:00,37.3,32.3,29.86,WSW,253,7.0,14.0,82,0.00,OVC,OVC,0.00,WeatherDisplay:10.37,2013-03-12 14:35:00,
2013-03-12 10:40:00,37.2,32.5,29.86,SW,225,5.2,11.5,83,0.00,OVC,,0.00,WeatherDisplay:10.37,2013-03-12 14:40:00,
2013-03-12 10:45:00,37.2,32.5,29.87,West,264,8.2,11.5,83,0.00,OVC,,0.00,WeatherDisplay:10.37,2013-03-12 14:45:00,
2013-03-12 10:50:00,37.1,32.4,29.87,WSW,244,4.0,6.0,83,0.00,OVC,,0.00,WeatherDisplay:10.37,2013-03-12 14:50:00,
2013-03-12 10:55:00,37.2,32.8,29.87,West,271,3.4,8.1,84,0.00,OVC,,0.00,WeatherDisplay:10.37,2013-03-12 14:55:00,
2013-03-12 11:00:00,37.3,32.6,29.87,WNW,292,7.0,12.7,83,0.00,OVC,,0.00,WeatherDisplay:10.37,2013-03-12 15:00:00,
2013-03-12 11:05:00,37.4,32.4,29.87,WSW,255,4.6,10.4,82,0.00,OVC,,0.00,WeatherDisplay:10.37,2013-03-12 15:05:00,
2013-03-12 11:10:00,37.6,32.6,29.87,WSW,253,9.0,10.4,82,0.00,OVC,,0.00,WeatherDisplay:10.37,2013-03-12 15:10:00,
2013-03-12 11:15:00,37.8,32.8,29.87,WNW,282,5.5,6.0,82,0.00,OVC,,0.00,WeatherDisplay:10.37,2013-03-12 15:15:00,
2013-03-12 11:20:00,38.0,33.0,29.87,WSW,251,4.0,4.6,82,0.00,OVC,,0.00,WeatherDisplay:10.37,2013-03-12 15:20:00,
2013-03-12 11:25:00,38.2,32.9,29.86,WSW,247,4.6,8.1,81,0.00,OVC,,0.00,WeatherDisplay:10.37,2013-03-12 15:25:00,
2013-03-12 11:30:00,38.3,32.4,29.87,WSW,245,5.4,10.4,79,0.00,OVC,,0.00,WeatherDisplay:10.37,2013-03-12 15:30:00,
2013-03-12 11:35:00,38.3,32.4,29.87,West,267,4.7,6.9,79,0.00,OVC,,0.00,WeatherDisplay:10.37,2013-03-12 15:35:00,
2013-03-12 11:40:00,38.2,31.6,29.87,West,265,7.9,12.7,77,0.00,OVC,,0.00,WeatherDisplay:10.37,2013-03-12 15:40:00,
2013-03-12 11:45:00,38.2,31.9,29.87,West,269,4.4,8.1,78,0.00,OVC,,0.00,WeatherDisplay:10.37,2013-03-12 15:45:00,
2013-03-12 11:50:00,38.0,32.1,29.87,WSW,256,8.1,11.5,79,0.00,OVC,,0.00,WeatherDisplay:10.37,2013-03-12 15:50:00,
2013-03-12 11:55:00,37.9,31.7,29.87,WSW,257,5.7,10.4,78,0.00,OVC,,0.00,WeatherDisplay:10.37,2013-03-12 15:55:00,
2013-03-12 12:00:00,37.9,32.0,29.87,WSW,258,4.0,5.8,79,0.00,OVC,,0.00,WeatherDisplay:10.37,2013-03-12 16:00:00,
2013-03-12 12:05:00,37.9,32.0,29.87,WSW,246,4.7,5.8,79,0.00,OVC,,0.00,WeatherDisplay:10.37,2013-03-12 16:05:00,
2013-03-12 12:10:00,37.8,31.9,29.87,West,260,4.7,6.0,79,0.00,OVC,,0.00,WeatherDisplay:10.37,2013-03-12 16:10:00,
2013-03-12 12:15:00,37.8,31.6,29.87,WSW,244,3.9,8.1,78,0.00,OVC,,0.00,WeatherDisplay:10.37,2013-03-12 16:15:00,
2013-03-12 12:20:00,37.7,31.5,29.87,West,261,7.2,8.1,78,0.00,OVC,,0.00,WeatherDisplay:10.37,2013-03-12 16:20:00,
2013-03-12 12:25:00,37.7,31.1,29.87,WSW,252,8.6,11.5,77,0.00,OVC,,0.00,WeatherDisplay:10.37,2013-03-12 16:25:00,
2013-03-12 12:30:00,37.7,31.8,29.87,WSW,258,4.3,11.5,79,0.00,OVC,,0.00,WeatherDisplay:10.37,2013-03-12 16:30:00,
2013-03-12 12:35:00,37.8,32.2,29.87,West,279,5.7,11.5,80,0.00,OVC,,0.00,WeatherDisplay:10.37,2013-03-12 16:35:00,
2013-03-12 12:40:00,38.1,32.5,29.87,West,279,5.1,6.9,80,0.00,OVC,,0.00,WeatherDisplay:10.37,2013-03-12 16:40:00,
2013-03-12 12:45:00,38.3,32.4,29.87,WSW,247,5.1,8.0,79,0.00,OVC,,0.00,WeatherDisplay:10.37,2013-03-12 16:45:00,
2013-03-12 12:50:00,38.4,31.5,29.87,WNW,285,6.2,12.7,76,0.00,OVC,,0.00,WeatherDisplay:10.37,2013-03-12 16:50:00,
2013-03-12 12:55:00,38.3,31.7,29.87,WSW,255,6.2,11.5,77,0.00,OVC,,0.00,WeatherDisplay:10.37,2013-03-12 16:55:00,
2013-03-12 13:00:00,38.2,31.3,29.87,WSW,257,7.7,15.0,76,0.00,OVC,,0.00,WeatherDisplay:10.37,2013-03-12 17:00:00,
2013-03-12 13:05:00,38.2,31.3,29.87,WSW,255,10.8,13.0,76,0.00,OVC,,0.00,WeatherDisplay:10.37,2013-03-12 17:05:00,
2013-03-12 13:10:00,38.0,31.4,29.87,West,275,7.4,17.0,77,0.00,OVC,,0.00,WeatherDisplay:10.37,2013-03-12 17:10:00,
2013-03-12 13:15:00,37.8,30.9,29.87,WSW,257,9.0,12.7,76,0.00,OVC,,0.00,WeatherDisplay:10.37,2013-03-12 17:15:00,
2013-03-12 13:20:00,37.6,30.7,29.88,WSW,257,10.0,19.6,76,0.00,OVC,,0.00,WeatherDisplay:10.37,2013-03-12 17:20:00,
2013-03-12 13:25:00,37.5,30.9,29.88,WSW,253,11.3,11.5,77,0.00,OVC,,0.00,WeatherDisplay:10.37,2013-03-12 17:25:00,
2013-03-12 13:30:00,37.5,31.3,29.88,West,267,10.1,12.7,78,0.00,OVC,,0.00,WeatherDisplay:10.37,2013-03-12 17:30:00,
2013-03-12 13:35:00,37.7,31.8,29.87,SW,234,7.4,12.7,79,0.00,OVC,,0.00,WeatherDisplay:10.37,2013-03-12 17:35:00,
2013-03-12 13:40:00,37.9,32.0,29.87,WSW,242,3.5,6.9,79,0.00,OVC,,0.00,WeatherDisplay:10.37,2013-03-12 17:40:00,
2013-03-12 13:45:00,38.1,32.2,29.87,West,273,5.5,6.9,79,0.00,OVC,,0.00,WeatherDisplay:10.37,2013-03-12 17:45:00,
2013-03-12 13:50:00,38.5,32.2,29.87,WSW,250,5.0,8.1,78,0.00,OVC,,0.00,WeatherDisplay:10.37,2013-03-12 17:50:00,
2013-03-12 13:55:00,38.6,31.7,29.87,WSW,257,4.0,5.8,76,0.00,OVC,,0.00,WeatherDisplay:10.37,2013-03-12 17:55:00,
2013-03-12 14:00:00,38.9,32.3,29.87,WNW,288,5.3,5.3,77,0.00,OVC,,0.00,WeatherDisplay:10.37,2013-03-12 18:00:00,
2013-03-12 14:05:00,39.1,31.8,29.87,South,185,6.5,11.5,75,0.00,OVC,,0.00,WeatherDisplay:10.37,2013-03-12 18:05:00,
2013-03-12 14:10:00,38.8,31.6,29.86,WSW,253,8.1,11.0,75,0.00,OVC,,0.00,WeatherDisplay:10.37,2013-03-12 18:10:00,
2013-03-12 14:15:00,38.6,31.7,29.87,West,260,6.2,13.8,76,0.00,OVC,,0.00,WeatherDisplay:10.37,2013-03-12 18:15:00,
2013-03-12 14:20:00,38.3,31.4,29.87,WSW,258,7.8,14.0,76,0.00,OVC,,0.00,WeatherDisplay:10.37,2013-03-12 18:20:00,
2013-03-12 14:25:00,38.0,31.4,29.87,SW,225,7.9,10.4,77,0.00,OVC,,0.00,WeatherDisplay:10.37,2013-03-12 18:25:00,
2013-03-12 14:30:00,37.8,31.2,29.87,West,266,5.7,8.1,77,0.00,OVC,,0.00,WeatherDisplay:10.37,2013-03-12 18:30:00,
2013-03-12 14:35:00,37.7,31.8,29.87,WSW,246,4.7,9.2,79,0.00,OVC,,0.00,WeatherDisplay:10.37,2013-03-12 18:35:00,
2013-03-12 14:40:00,37.9,32.3,29.87,SW,233,5.9,8.1,80,0.00,OVC,,0.00,WeatherDisplay:10.37,2013-03-12 18:40:00,
2013-03-12 14:45:00,38.2,31.9,29.87,WSW,243,5.6,9.2,78,0.00,OVC,,0.00,WeatherDisplay:10.37,2013-03-12 18:45:00,
2013-03-12 14:50:00,38.4,31.8,29.87,WSW,247,4.1,10.4,77,0.00,OVC,,0.00,WeatherDisplay:10.37,2013-03-12 18:50:00,
2013-03-12 14:55:00,38.4,31.5,29.87,West,268,6.6,10.4,76,0.00,OVC,,0.00,WeatherDisplay:10.37,2013-03-12 18:55:00,
2013-03-12 15:00:00,38.2,31.3,29.87,WSW,251,4.0,11.5,76,0.00,OVC,,0.00,WeatherDisplay:10.37,2013-03-12 19:00:00,
2013-03-12 15:05:00,38.1,31.2,29.88,West,269,8.2,15.0,76,0.00,OVC,,0.00,WeatherDisplay:10.37,2013-03-12 19:05:00,
2013-03-12 15:10:00,38.0,31.4,29.87,WNW,292,7.1,12.7,77,0.00,OVC,,0.00,WeatherDisplay:10.37,2013-03-12 19:10:00,
2013-03-12 15:15:00,37.8,30.9,29.87,West,277,6.7,18.4,76,0.00,OVC,,0.00,WeatherDisplay:10.37,2013-03-12 19:15:00,
2013-03-12 15:20:00,37.8,31.2,29.88,West,269,7.3,11.5,77,0.00,OVC,,0.00,WeatherDisplay:10.37,2013-03-12 19:20:00,
2013-03-12 15:25:00,37.7,31.1,29.88,WNW,284,6.2,11.5,77,0.00,OVC,,0.00,WeatherDisplay:10.37,2013-03-12 19:25:00,
2013-03-12 15:30:00,37.8,31.2,29.88,WNW,287,6.7,8.1,77,0.00,OVC,,0.00,WeatherDisplay:10.37,2013-03-12 19:30:00,
2013-03-12 15:35:00,37.9,31.3,29.88,WSW,257,8.2,11.5,77,0.00,OVC,,0.00,WeatherDisplay:10.37,2013-03-12 19:35:00,
2013-03-12 15:40:00,37.8,30.9,29.88,West,265,5.9,9.2,76,0.00,OVC,,0.00,WeatherDisplay:10.37,2013-03-12 19:40:00,
2013-03-12 15:45:00,37.8,31.2,29.88,West,259,7.3,12.7,77,0.00,OVC,,0.00,WeatherDisplay:10.37,2013-03-12 19:45:00,
2013-03-12 15:50:00,37.7,31.1,29.88,WNW,284,8.3,14.0,77,0.00,OVC,,0.00,WeatherDisplay:10.37,2013-03-12 19:50:00,
2013-03-12 15:55:00,37.7,31.1,29.89,West,281,4.9,6.9,77,0.00,OVC,,0.00,WeatherDisplay:10.37,2013-03-12 19:55:00,
2013-03-12 16:00:00,37.8,30.9,29.89,SSW,202,7.2,15.0,76,0.00,OVC,,0.00,WeatherDisplay:10.37,2013-03-12 20:00:00,
2013-03-12 16:05:00,37.8,30.9,29.88,WSW,250,6.7,11.5,76,0.00,-SN,,0.00,WeatherDisplay:10.37,2013-03-12 20:05:00,
2013-03-12 16:10:00,37.8,30.9,29.88,WSW,242,5.1,10.4,76,0.00,-SN,,0.00,WeatherDisplay:10.37,2013-03-12 20:10:00,
2013-03-12 16:15:00,37.8,30.6,29.88,SW,222,7.4,11.0,75,0.00,-SN,,0.00,WeatherDisplay:10.37,2013-03-12 20:15:00,
2013-03-12 16:20:00,37.8,30.6,29.88,SW,219,5.9,11.5,75,0.00,-SN,,0.00,WeatherDisplay:10.37,2013-03-12 20:20:00,
2013-03-12 16:25:00,37.8,30.6,29.89,WSW,253,5.4,6.9,75,0.00,-SN,,0.00,WeatherDisplay:10.37,2013-03-12 20:25:00,
2013-03-12 16:30:00,37.9,30.7,29.89,WNW,285,7.0,8.1,75,0.00,-SN,,0.00,WeatherDisplay:10.37,2013-03-12 20:30:00,
2013-03-12 16:35:00,37.9,30.7,29.89,WSW,240,6.2,11.5,75,0.00,-SN,,0.00,WeatherDisplay:10.37,2013-03-12 20:35:00,
2013-03-12 16:40:00,37.9,30.7,29.89,WSW,248,9.4,13.8,75,0.00,-SN,,0.00,WeatherDisplay:10.37,2013-03-12 20:40:00,
2013-03-12 16:45:00,37.9,31.0,29.89,West,273,4.9,7.0,76,0.00,-SN,,0.00,WeatherDisplay:10.37,2013-03-12 20:45:00,
2013-03-12 16:50:00,37.9,30.7,29.89,West,263,4.6,12.7,75,0.00,-SN,,0.00,WeatherDisplay:10.37,2013-03-12 20:50:00,
2013-03-12 16:55:00,38.0,30.8,29.89,SW,234,6.7,8.0,75,0.00,-SN,,0.00,WeatherDisplay:10.37,2013-03-12 20:55:00,
2013-03-12 17:00:00,38.0,30.4,29.89,West,275,4.2,10.4,74,0.00,-SN,,0.00,WeatherDisplay:10.37,2013-03-12 21:00:00,
2013-03-12 17:05:00,37.9,30.4,29.89,WSW,251,8.7,12.7,74,0.00,OVC,,0.00,WeatherDisplay:10.37,2013-03-12 21:05:00,
2013-03-12 17:10:00,37.8,30.3,29.89,West,273,4.4,12.7,74,0.00,OVC,,0.00,WeatherDisplay:10.37,2013-03-12 21:10:00,
2013-03-12 17:15:00,37.8,30.3,29.89,West,269,5.8,8.1,74,0.00,OVC,,0.00,WeatherDisplay:10.37,2013-03-12 21:15:00,
2013-03-12 17:20:00,37.8,30.6,29.89,West,281,6.0,11.5,75,0.00,OVC,,0.00,WeatherDisplay:10.37,2013-03-12 21:20:00,
2013-03-12 17:25:00,37.8,30.9,29.89,West,263,4.4,8.1,76,0.00,OVC,,0.00,WeatherDisplay:10.37,2013-03-12 21:25:00,
2013-03-12 17:30:00,37.9,31.0,29.89,West,264,3.9,11.5,76,0.00,OVC,,0.00,WeatherDisplay:10.37,2013-03-12 21:30:00,
2013-03-12 17:35:00,37.9,31.0,29.89,West,281,3.0,4.6,76,0.00,OVC,,0.00,WeatherDisplay:10.37,2013-03-12 21:35:00,
2013-03-12 17:40:00,37.9,31.0,29.89,WNW,298,5.3,5.3,76,0.00,OVC,,0.00,WeatherDisplay:10.37,2013-03-12 21:40:00,
2013-03-12 17:45:00,37.8,30.6,29.89,WSW,247,5.7,11.5,75,0.00,OVC,,0.00,WeatherDisplay:10.37,2013-03-12 21:45:00,
2013-03-12 17:50:00,37.7,30.5,29.89,WSW,242,2.7,10.4,75,0.00,OVC,,0.00,WeatherDisplay:10.37,2013-03-12 21:50:00,
2013-03-12 17:55:00,37.7,30.8,29.89,West,269,4.2,4.6,76,0.00,OVC,,0.00,WeatherDisplay:10.37,2013-03-12 21:55:00,
2013-03-12 18:00:00,37.6,30.7,29.89,WSW,253,3.0,8.1,76,0.00,OVC,,0.00,WeatherDisplay:10.37,2013-03-12 22:00:00,
2013-03-12 18:05:00,37.6,30.7,29.90,West,264,3.8,6.0,76,0.00,-SN,,0.00,WeatherDisplay:10.37,2013-03-12 22:05:00,
2013-03-12 18:10:00,37.6,31.0,29.90,WSW,250,5.5,6.9,77,0.00,-SN,,0.00,WeatherDisplay:10.37,2013-03-12 22:10:00,
2013-03-12 18:15:00,37.6,31.0,29.90,WSW,251,1.1,5.8,77,0.00,-SN,,0.00,WeatherDisplay:10.37,2013-03-12 22:15:00,
2013-03-12 18:20:00,37.6,31.4,29.90,WSW,257,2.5,6.0,78,0.00,-SN,,0.00,WeatherDisplay:10.37,2013-03-12 22:20:00,
2013-03-12 18:25:00,37.5,30.9,29.90,West,276,4.4,9.2,77,0.00,-SN,,0.00,WeatherDisplay:10.37,2013-03-12 22:25:00,
2013-03-12 18:30:00,37.5,30.3,29.90,SW,235,7.3,11.5,75,0.00,-SN,,0.00,WeatherDisplay:10.37,2013-03-12 22:30:00,
2013-03-12 18:35:00,37.6,29.7,29.91,West,265,7.9,11.5,73,0.00,-SN,,0.00,WeatherDisplay:10.37,2013-03-12 22:35:00,
2013-03-12 18:40:00,37.5,29.3,29.91,West,275,6.5,17.3,72,0.00,-SN,,0.00,WeatherDisplay:10.37,2013-03-12 22:40:00,
2013-03-12 18:45:00,37.5,29.3,29.91,West,259,7.0,14.0,72,0.00,-SN,-SN,0.00,WeatherDisplay:10.37,2013-03-12 22:45:00,
2013-03-12 18:50:00,37.5,28.9,29.91,WSW,254,6.1,8.1,71,0.00,-SN,,0.00,WeatherDisplay:10.37,2013-03-12 22:50:00,
2013-03-12 18:55:00,37.4,29.2,29.92,West,263,6.0,14.0,72,0.00,-SN,-SN,0.00,WeatherDisplay:10.37,2013-03-12 22:55:00,
2013-03-12 19:00:00,37.4,28.9,29.92,WNW,302,5.1,11.5,71,0.00,-SN,,0.00,WeatherDisplay:10.37,2013-03-12 23:00:00,
2013-03-12 19:05:00,37.3,29.1,29.92,WNW,301,6.0,6.9,72,0.00,OVC,,0.00,WeatherDisplay:10.37,2013-03-12 23:05:00,
2013-03-12 19:10:00,37.3,29.1,29.92,WNW,287,6.0,9.0,72,0.00,OVC,OVC,0.00,WeatherDisplay:10.37,2013-03-12 23:10:00,
2013-03-12 19:15:00,37.1,29.9,29.92,WNW,300,6.7,11.5,75,0.00,OVC,,0.00,WeatherDisplay:10.37,2013-03-12 23:15:00,
2013-03-12 19:20:00,37.0,30.1,29.92,West,272,4.5,6.9,76,0.00,OVC,,0.00,WeatherDisplay:10.37,2013-03-12 23:20:00,
2013-03-12 19:25:00,36.9,30.0,29.92,WNW,288,3.2,6.9,76,0.00,OVC,,0.00,WeatherDisplay:10.37,2013-03-12 23:25:00,
2013-03-12 19:30:00,36.8,29.6,29.93,WNW,286,3.5,9.2,75,0.00,OVC,,0.00,WeatherDisplay:10.37,2013-03-12 23:30:00,
2013-03-12 19:35:00,36.6,29.4,29.93,WSW,244,5.2,9.2,75,0.00,OVC,,0.00,WeatherDisplay:10.37,2013-03-12 23:35:00,
2013-03-12 19:40:00,36.6,29.4,29.93,West,264,6.6,8.1,75,0.00,OVC,,0.00,WeatherDisplay:10.37,2013-03-12 23:40:00,
2013-03-12 19:45:00,36.5,29.7,29.93,WNW,290,5.3,8.1,76,0.00,OVC,,0.00,WeatherDisplay:10.37,2013-03-12 23:45:00,
2013-03-12 19:50:00,36.4,29.6,29.93,WSW,246,7.1,8.1,76,0.00,OVC,,0.00,WeatherDisplay:10.37,2013-03-12 23:50:00,
2013-03-12 19:55:00,36.3,29.8,29.93,West,281,4.4,8.1,77,0.00,OVC,,0.00,WeatherDisplay:10.37,2013-03-12 23:55:00,
2013-03-12 20:00:00,36.2,29.4,29.93,WSW,248,5.6,5.6,76,0.00,OVC,,0.00,WeatherDisplay:10.37,2013-03-13 00:00:00,
2013-03-12 20:05:00,36.2,30.0,29.93,West,271,3.6,4.6,78,0.00,OVC,,0.00,WeatherDisplay:10.37,2013-03-13 00:05:00,
2013-03-12 20:10:00,36.1,29.9,29.94,West,273,2.9,5.8,78,0.00,OVC,,0.00,WeatherDisplay:10.37,2013-03-13 00:10:00,
2013-03-12 20:15:00,36.1,29.9,29.94,WSW,247,2.7,6.9,78,0.00,OVC,,0.00,WeatherDisplay:10.37,2013-03-13 00:15:00,
2013-03-12 20:20:00,36.1,29.9,29.94,WSW,248,2.8,5.8,78,0.00,OVC,,0.00,WeatherDisplay:10.37,2013-03-13 00:20:00,
2013-03-12 20:25:00,36.1,29.9,29.94,West,260,0.9,3.5,78,0.00,OVC,,0.00,WeatherDisplay:10.37,2013-03-13 00:25:00,
2013-03-12 20:30:00,36.1,29.9,29.94,NW,311,4.5,5.8,78,0.00,OVC,,0.00,WeatherDisplay:10.37,2013-03-13 00:30:00,
2013-03-12 20:35:00,36.1,29.9,29.94,WNW,282,5.0,7.0,78,0.00,OVC,OVC,0.00,WeatherDisplay:10.37,2013-03-13 00:35:00,
2013-03-12 20:40:00,36.0,29.5,29.95,West,281,4.2,6.9,77,0.00,OVC,,0.00,WeatherDisplay:10.37,2013-03-13 00:40:00,
2013-03-12 20:45:00,36.0,29.5,29.95,West,268,6.0,12.0,77,0.00,OVC,OVC,0.00,WeatherDisplay:10.37,2013-03-13 00:45:00,
2013-03-12 20:50:00,36.0,29.5,29.95,WSW,238,5.1,12.7,77,0.00,OVC,,0.00,WeatherDisplay:10.37,2013-03-13 00:50:00,
2013-03-12 20:55:00,36.0,29.5,29.95,West,263,5.8,10.4,77,0.00,OVC,,0.00,WeatherDisplay:10.37,2013-03-13 00:55:00,
2013-03-12 21:00:00,36.0,29.5,29.95,West,267,9.0,16.0,77,0.00,OVC,OVC,0.00,WeatherDisplay:10.37,2013-03-13 01:00:00,
2013-03-12 21:05:00,35.9,29.4,29.95,West,270,9.0,15.0,77,0.00,OVC,OVC,0.00,WeatherDisplay:10.37,2013-03-13 01:05:00,
2013-03-12 21:10:00,35.9,29.7,29.95,West,269,7.0,13.0,78,0.00,OVC,OVC,0.00,WeatherDisplay:10.37,2013-03-13 01:10:00,
2013-03-12 21:15:00,35.8,29.6,29.95,West,278,7.8,13.8,78,0.00,OVC,,0.00,WeatherDisplay:10.37,2013-03-13 01:15:00,
2013-03-12 21:20:00,35.8,29.3,29.96,West,270,6.0,14.0,77,0.00,OVC,OVC,0.00,WeatherDisplay:10.37,2013-03-13 01:20:00,
2013-03-12 21:25:00,35.7,28.9,29.96,WSW,250,4.6,17.3,76,0.00,OVC,,0.00,WeatherDisplay:10.37,2013-03-13 01:25:00,
2013-03-12 21:30:00,35.6,28.8,29.97,WSW,240,11.1,17.0,76,0.00,OVC,,0.00,WeatherDisplay:10.37,2013-03-13 01:30:00,
2013-03-12 21:35:00,35.5,28.0,29.97,WSW,252,8.7,15.0,74,0.00,OVC,,0.00,WeatherDisplay:10.37,2013-03-13 01:35:00,
2013-03-12 21:40:00,35.4,27.6,29.97,West,267,8.0,20.0,73,0.00,OVC,OVC,0.00,WeatherDisplay:10.37,2013-03-13 01:40:00,
2013-03-12 21:45:00,35.3,27.2,29.97,WSW,247,8.4,15.0,72,0.00,OVC,,0.00,WeatherDisplay:10.37,2013-03-13 01:45:00,
2013-03-12 21:50:00,35.2,27.4,29.97,NW,313,7.7,9.2,73,0.00,OVC,,0.00,WeatherDisplay:10.37,2013-03-13 01:50:00,
2013-03-12 21:55:00,35.2,27.4,29.97,WSW,239,6.0,12.7,73,0.00,OVC,,0.00,WeatherDisplay:10.37,2013-03-13 01:55:00,
2013-03-12 22:00:00,35.1,27.3,29.97,WSW,254,4.6,5.8,73,0.00,OVC,,0.00,WeatherDisplay:10.37,2013-03-13 02:00:00,
2013-03-12 22:05:00,35.0,27.2,29.97,West,272,4.8,5.8,73,0.00,OVC,,0.00,WeatherDisplay:10.37,2013-03-13 02:05:00,
2013-03-12 22:10:00,35.0,27.2,29.98,West,276,5.9,10.4,73,0.00,OVC,,0.00,WeatherDisplay:10.37,2013-03-13 02:10:00,
2013-03-12 22:15:00,34.9,27.1,29.98,West,271,8.8,9.2,73,0.00,OVC,,0.00,WeatherDisplay:10.37,2013-03-13 02:15:00,
2013-03-12 22:20:00,34.9,27.1,29.98,West,270,6.8,11.5,73,0.00,OVC,,0.00,WeatherDisplay:10.37,2013-03-13 02:20:00,
2013-03-12 22:25:00,34.9,27.1,29.97,WNW,302,5.7,8.1,73,0.00,OVC,,0.00,WeatherDisplay:10.37,2013-03-13 02:25:00,
2013-03-12 22:30:00,34.8,27.0,29.98,WNW,288,8.8,12.7,73,0.00,OVC,,0.00,WeatherDisplay:10.37,2013-03-13 02:30:00,
2013-03-12 22:35:00,34.8,27.0,29.97,WSW,257,5.3,7.0,73,0.00,OVC,,0.00,WeatherDisplay:10.37,2013-03-13 02:35:00,
2013-03-12 22:40:00,34.8,27.0,29.97,West,259,4.2,9.2,73,0.00,OVC,,0.00,WeatherDisplay:10.37,2013-03-13 02:40:00,
2013-03-12 22:45:00,34.7,26.6,29.97,West,265,4.4,5.0,72,0.00,OVC,,0.00,WeatherDisplay:10.37,2013-03-13 02:45:00,
2013-03-12 22:50:00,34.7,26.9,29.97,WSW,250,5.8,7.0,73,0.00,OVC,,0.00,WeatherDisplay:10.37,2013-03-13 02:50:00,
2013-03-12 22:55:00,34.7,26.6,29.97,WSW,240,2.9,4.6,72,0.00,OVC,,0.00,WeatherDisplay:10.37,2013-03-13 02:55:00,
2013-03-12 23:00:00,34.6,26.8,29.97,WSW,242,2.1,4.6,73,0.00,OVC,,0.00,WeatherDisplay:10.37,2013-03-13 03:00:00,
2013-03-12 23:05:00,34.6,27.2,29.97,WSW,252,3.9,5.8,74,0.00,OVC,,0.00,WeatherDisplay:10.37,2013-03-13 03:05:00,
2013-03-12 23:10:00,34.5,27.1,29.97,WSW,240,2.8,3.5,74,0.00,OVC,,0.00,WeatherDisplay:10.37,2013-03-13 03:10:00,
2013-03-12 23:15:00,34.5,27.1,29.97,WSW,245,3.9,6.9,74,0.00,OVC,,0.00,WeatherDisplay:10.37,2013-03-13 03:15:00,
2013-03-12 23:20:00,34.4,27.3,29.97,WSW,248,2.3,3.5,75,0.00,OVC,,0.00,WeatherDisplay:10.37,2013-03-13 03:20:00,
2013-03-12 23:25:00,34.4,27.6,29.97,WSW,245,2.0,3.5,76,0.00,OVC,,0.00,WeatherDisplay:10.37,2013-03-13 03:25:00,
2013-03-12 23:30:00,34.4,27.3,29.97,WSW,248,1.0,5.0,75,0.00,OVC,OVC,0.00,WeatherDisplay:10.37,2013-03-13 03:30:00,
2013-03-12 23:35:00,34.4,27.6,29.96,WSW,248,1.0,4.0,76,0.00,OVC,OVC,0.00,WeatherDisplay:10.37,2013-03-13 03:35:00,
2013-03-12 23:40:00,34.3,27.5,29.96,SSW,208,2.0,3.5,76,0.00,OVC,,0.00,WeatherDisplay:10.37,2013-03-13 03:40:00,
2013-03-12 23:45:00,34.3,27.5,29.96,SW,217,2.9,3.5,76,0.00,OVC,,0.00,WeatherDisplay:10.37,2013-03-13 03:45:00,
2013-03-12 23:50:00,34.3,27.2,29.96,WSW,242,2.6,3.0,75,0.00,OVC,,0.00,WeatherDisplay:10.37,2013-03-13 03:50:00,
2013-03-12 23:55:00,34.4,27.3,29.96,WSW,250,3.1,5.8,75,0.00,OVC,,0.00,WeatherDisplay:10.37,2013-03-13 03:55:00,